Time;durP1;ratioP1;P1;durP2;ratioP2;P2;SDS_P1;SDS_P2;PMS_P1;PMS_P2;Temp;Humidity;BMP_temperature;BMP_pressure;BME280_temperature;BME280_humidity;BME280_pressure;Samples;Min_cycle;Max_cycle;Signal;HPM_P1;HPM_P2
2024/01/22 00:01:44;;;;;;;23.90;14.37;;;22.30;99.90;;;;;;4952542;29;20403;-52
2024/01/22 00:04:10;;;;;;;26.98;13.57;;;22.30;99.90;;;;;;4944261;29;20038;-52
2024/01/22 00:06:37;;;;;;;25.90;13.25;;;22.30;99.90;;;;;;4944108;29;20087;-51
2024/01/22 00:09:05;;;;;;;25.60;12.63;;;22.30;99.90;;;;;;4953128;29;20050;-51
2024/01/22 00:11:31;;;;;;;22.60;12.57;;;22.30;99.90;;;;;;4949946;29;20102;-51
2024/01/22 00:13:58;;;;;;;26.08;13.43;;;22.30;99.90;;;;;;4952680;29;20023;-52
2024/01/22 00:16:24;;;;;;;25.70;12.50;;;22.20;99.90;;;;;;4951829;29;20031;-52
2024/01/22 00:18:50;;;;;;;29.85;13.45;;;22.20;99.90;;;;;;4952949;29;20019;-52
2024/01/22 00:21:16;;;;;;;22.35;12.52;;;22.20;99.90;;;;;;4951779;29;20038;-49
2024/01/22 00:23:43;;;;;;;24.08;14.85;;;22.20;99.90;;;;;;4952273;29;20015;-50
2024/01/22 00:26:13;;;;;;;22.17;12.20;;;22.20;99.90;;;;;;4936274;29;20496;-49
2024/01/22 00:28:41;;;;;;;22.00;13.23;;;22.20;99.90;;;;;;4938371;29;20130;-50
2024/01/22 00:31:07;;;;;;;22.65;12.18;;;22.10;99.90;;;;;;4955838;29;20019;-49
2024/01/22 00:33:32;;;;;;;21.13;12.23;;;22.10;99.90;;;;;;4948384;29;20047;-50
2024/01/22 00:35:58;;;;;;;21.48;12.85;;;22.10;99.90;;;;;;4956063;29;20150;-49
2024/01/22 00:38:24;;;;;;;23.58;13.20;;;22.10;99.90;;;;;;4955790;29;20027;-49
2024/01/22 00:40:50;;;;;;;21.55;13.07;;;22.10;99.90;;;;;;4945809;29;20535;-52
2024/01/22 00:43:16;;;;;;;22.23;12.63;;;22.10;99.90;;;;;;4955455;29;20395;-51
2024/01/22 00:45:41;;;;;;;22.65;12.30;;;22.10;99.90;;;;;;4955356;29;20340;-51
2024/01/22 00:48:08;;;;;;;23.83;12.93;;;22.10;99.90;;;;;;4955669;29;20035;-51
2024/01/22 00:50:34;;;;;;;20.73;12.02;;;22.10;99.90;;;;;;4955529;29;20034;-51
2024/01/22 00:52:59;;;;;;;20.30;11.48;;;22.10;99.90;;;;;;4955606;29;20035;-51
2024/01/22 00:55:25;;;;;;;21.65;11.93;;;22.00;99.90;;;;;;4955146;29;20502;-51
2024/01/22 00:57:51;;;;;;;21.95;12.13;;;22.00;99.90;;;;;;4955652;29;20055;-51
2024/01/22 01:00:17;;;;;;;22.58;11.82;;;22.00;99.90;;;;;;4955975;29;20024;-51
2024/01/22 01:02:43;;;;;;;22.45;11.60;;;22.00;99.90;;;;;;4955584;29;20051;-51
2024/01/22 01:05:09;;;;;;;24.73;10.93;;;22.00;99.90;;;;;;4955788;29;20021;-51
2024/01/22 01:07:35;;;;;;;22.35;11.60;;;22.00;99.90;;;;;;4955109;29;20468;-51
2024/01/22 01:10:01;;;;;;;19.40;10.85;;;22.00;99.90;;;;;;4955648;29;20070;-51
2024/01/22 01:12:27;;;;;;;17.60;11.27;;;21.90;99.90;;;;;;4955374;29;20615;-51
2024/01/22 01:14:53;;;;;;;20.88;11.43;;;21.90;99.90;;;;;;4955742;29;20027;-49
2024/01/22 01:17:18;;;;;;;19.10;11.10;;;21.90;99.90;;;;;;4955566;29;20416;-52
2024/01/22 01:19:44;;;;;;;22.75;12.48;;;21.90;99.90;;;;;;4954784;29;20075;-51
2024/01/22 01:22:10;;;;;;;21.55;11.40;;;21.90;99.90;;;;;;4955758;29;20484;-52
2024/01/22 01:24:37;;;;;;;20.60;11.77;;;21.90;99.90;;;;;;4955341;29;20484;-51
2024/01/22 01:27:03;;;;;;;18.27;10.60;;;21.90;99.90;;;;;;4955367;29;20031;-52
2024/01/22 01:29:29;;;;;;;24.73;10.55;;;21.80;99.90;;;;;;4954616;29;20062;-52
2024/01/22 01:31:55;;;;;;;18.30;10.77;;;21.80;99.90;;;;;;4955200;29;20026;-51
2024/01/22 01:34:21;;;;;;;17.77;10.52;;;21.80;99.90;;;;;;4951650;29;20024;-51
2024/01/22 01:36:46;;;;;;;17.27;10.57;;;21.80;99.90;;;;;;4949565;28;20031;-51
2024/01/22 01:39:13;;;;;;;17.60;10.90;;;21.80;99.90;;;;;;4941339;28;20027;-52
2024/01/22 01:41:39;;;;;;;15.77;10.65;;;21.80;99.90;;;;;;4955145;29;20459;-51
2024/01/22 01:44:04;;;;;;;17.55;9.95;;;21.80;99.90;;;;;;4954982;29;20026;-51
2024/01/22 01:46:30;;;;;;;17.83;10.82;;;21.70;99.90;;;;;;4955130;29;20019;-50
2024/01/22 01:48:58;;;;;;;17.85;10.23;;;21.70;99.90;;;;;;4954936;29;20498;-50
2024/01/22 01:51:24;;;;;;;;;;;21.70;99.90;;;;;;4955666;29;20015;-49
2024/01/22 01:53:52;;;;;;;17.25;9.68;;;21.70;99.90;;;;;;4953754;29;20266;-50
2024/01/22 01:56:18;;;;;;;19.40;10.48;;;21.70;99.90;;;;;;4954999;29;20030;-51
2024/01/22 01:58:44;;;;;;;18.15;10.45;;;21.70;99.90;;;;;;4953028;29;20715;-51
2024/01/22 02:01:10;;;;;;;17.95;9.98;;;21.60;99.90;;;;;;4954536;29;20054;-51
2024/01/22 02:03:36;;;;;;;16.83;10.20;;;21.60;99.90;;;;;;4954942;29;20298;-51
2024/01/22 02:06:01;;;;;;;20.58;10.40;;;21.60;99.90;;;;;;4954725;29;20030;-51
2024/01/22 02:08:27;;;;;;;17.98;9.93;;;21.60;99.90;;;;;;4954541;29;20036;-51
2024/01/22 02:10:53;;;;;;;17.38;9.93;;;21.60;99.90;;;;;;4954780;29;20078;-51
2024/01/22 02:13:19;;;;;;;18.50;10.23;;;21.60;99.90;;;;;;4944388;29;20046;-51
2024/01/22 02:15:44;;;;;;;19.10;10.23;;;21.60;99.90;;;;;;4954266;29;20031;-52
2024/01/22 02:18:10;;;;;;;18.63;10.13;;;21.60;99.90;;;;;;4942602;29;20028;-51
2024/01/22 02:20:36;;;;;;;16.65;9.32;;;21.50;99.90;;;;;;4954723;29;20032;-51
2024/01/22 02:23:06;;;;;;;18.60;10.40;;;21.50;99.90;;;;;;4954648;29;20106;-51
2024/01/22 02:25:32;;;;;;;17.60;9.73;;;21.50;99.90;;;;;;4954564;29;20022;-51
2024/01/22 02:27:58;;;;;;;16.50;9.93;;;21.50;99.90;;;;;;4945850;29;20040;-50
2024/01/22 02:30:24;;;;;;;17.27;9.25;;;21.50;99.90;;;;;;4952454;29;20027;-51
2024/01/22 02:32:50;;;;;;;16.40;9.15;;;21.50;99.90;;;;;;4952502;29;20042;-50
2024/01/22 02:35:17;;;;;;;14.15;8.52;;;21.50;99.90;;;;;;4954105;29;20384;-50
2024/01/22 02:37:43;;;;;;;18.25;9.80;;;21.50;99.90;;;;;;4953881;29;20030;-50
2024/01/22 02:40:09;;;;;;;20.05;9.55;;;21.50;99.90;;;;;;4952589;29;20027;-51
2024/01/22 02:42:35;;;;;;;18.23;9.27;;;21.50;99.90;;;;;;4953438;29;20034;-52
2024/01/22 02:45:01;;;;;;;14.68;8.60;;;21.50;99.90;;;;;;4953829;29;20380;-52
2024/01/22 02:47:27;;;;;;;18.83;9.10;;;21.40;99.90;;;;;;4954020;29;20031;-51
2024/01/22 02:49:52;;;;;;;16.05;8.70;;;21.40;99.90;;;;;;4953403;28;20023;-51
2024/01/22 02:52:18;;;;;;;14.40;8.60;;;21.40;99.90;;;;;;4952933;29;20067;-51
2024/01/22 02:54:44;;;;;;;16.45;9.10;;;21.40;99.90;;;;;;4935367;29;20490;-51
2024/01/22 02:57:11;;;;;;;15.13;8.85;;;21.40;99.90;;;;;;4953501;29;20027;-52
2024/01/22 02:59:37;;;;;;;15.75;8.40;;;21.40;99.90;;;;;;4953395;29;20031;-52
2024/01/22 03:02:05;;;;;;;15.52;8.52;;;21.40;99.90;;;;;;4954224;29;20484;-51
2024/01/22 03:04:31;;;;;;;17.02;8.15;;;21.40;99.90;;;;;;4952709;29;20031;-51
2024/01/22 03:06:57;;;;;;;12.70;8.02;;;21.40;99.90;;;;;;4953216;29;20027;-52
2024/01/22 03:09:24;;;;;;;15.70;8.95;;;21.30;99.90;;;;;;4953631;29;20047;-52
2024/01/22 03:11:50;;;;;;;13.90;8.57;;;21.30;99.90;;;;;;4953551;29;20019;-52
2024/01/22 03:14:16;;;;;;;13.35;7.13;;;21.30;99.90;;;;;;4953501;29;20494;-52
2024/01/22 03:16:42;;;;;;;15.85;8.60;;;21.30;99.90;;;;;;4953554;29;20024;-51
2024/01/22 03:19:08;;;;;;;17.42;7.85;;;21.30;99.90;;;;;;4952747;29;20050;-52
2024/01/22 03:21:34;;;;;;;13.95;8.23;;;21.30;99.90;;;;;;4950364;29;20086;-51
2024/01/22 03:24:00;;;;;;;16.40;8.50;;;21.30;99.90;;;;;;4934553;29;20472;-52
2024/01/22 03:26:26;;;;;;;17.98;8.75;;;21.30;99.90;;;;;;4951415;29;20031;-52
2024/01/22 03:28:52;;;;;;;17.33;7.88;;;21.30;99.90;;;;;;4952710;29;20122;-52
2024/01/22 03:31:25;;;;;;;14.15;8.70;;;21.20;99.90;;;;;;4953742;29;20106;-52
2024/01/22 03:33:54;;;;;;;16.33;8.13;;;21.20;99.90;;;;;;4953637;29;20019;-52
2024/01/22 03:36:24;;;;;;;13.70;7.35;;;21.20;99.90;;;;;;4953698;29;20523;-51
2024/01/22 03:38:51;;;;;;;19.63;9.13;;;21.20;99.90;;;;;;4953396;29;20082;-51
2024/01/22 03:41:17;;;;;;;16.77;7.82;;;21.20;99.90;;;;;;4936288;29;20122;-51
2024/01/22 03:43:43;;;;;;;16.60;8.43;;;21.20;99.90;;;;;;4953272;29;20446;-52
2024/01/22 03:46:11;;;;;;;21.85;7.95;;;21.20;99.90;;;;;;4953721;29;20102;-51
2024/01/22 03:48:37;;;;;;;11.50;6.55;;;21.20;99.90;;;;;;4952779;29;20491;-51
2024/01/22 03:51:03;;;;;;;13.35;7.63;;;21.20;99.90;;;;;;4935975;29;20027;-51
2024/01/22 03:53:28;;;;;;;14.38;7.53;;;21.20;99.90;;;;;;4953391;29;20388;-51
2024/01/22 03:55:54;;;;;;;14.15;7.72;;;21.10;99.90;;;;;;4953581;29;20027;-51
2024/01/22 03:58:20;;;;;;;14.20;7.18;;;21.10;99.90;;;;;;4953459;29;20114;-51
2024/01/22 04:00:46;;;;;;;13.60;7.55;;;21.10;99.90;;;;;;4955450;28;20054;-51
2024/01/22 04:03:12;;;;;;;12.50;7.40;;;21.10;99.90;;;;;;4957218;29;20033;-51
2024/01/22 04:05:37;;;;;;;13.70;7.15;;;21.10;99.90;;;;;;4939946;29;20054;-51
2024/01/22 04:08:04;;;;;;;13.43;7.95;;;21.10;99.90;;;;;;4956888;29;20102;-51
2024/01/22 04:10:30;;;;;;;15.73;8.00;;;21.10;99.90;;;;;;4939847;29;20106;-51
2024/01/22 04:12:56;;;;;;;13.90;7.47;;;21.00;99.90;;;;;;4957046;29;20118;-51
2024/01/22 04:15:22;;;;;;;15.73;7.70;;;21.00;99.90;;;;;;4956969;29;20019;-51
2024/01/22 04:17:48;;;;;;;14.52;7.53;;;21.00;99.90;;;;;;4956870;29;20023;-51
2024/01/22 04:20:14;;;;;;;14.38;7.90;;;21.00;99.90;;;;;;4957275;29;20090;-51
2024/01/22 04:22:40;;;;;;;12.50;7.13;;;21.00;99.90;;;;;;4956739;29;20024;-51
2024/01/22 04:25:06;;;;;;;13.60;7.78;;;21.00;99.90;;;;;;4956869;29;20361;-51
2024/01/22 04:27:32;;;;;;;13.38;7.32;;;21.00;99.90;;;;;;4956867;29;20070;-51
2024/01/22 04:29:58;;;;;;;15.05;7.68;;;21.00;99.90;;;;;;4956678;29;20063;-51
2024/01/22 04:32:23;;;;;;;12.75;7.22;;;21.00;99.90;;;;;;4956722;29;20383;-51
2024/01/22 04:34:50;;;;;;;15.55;7.70;;;21.00;99.90;;;;;;4939361;29;20038;-51
2024/01/22 04:37:16;;;;;;;14.15;7.18;;;20.90;99.90;;;;;;4956399;29;20015;-51
2024/01/22 04:39:43;;;;;;;9.68;6.13;;;20.90;99.90;;;;;;4956544;29;20519;-51
2024/01/22 04:42:17;;;;;;;16.33;7.75;;;20.90;99.90;;;;;;4938990;29;20035;-51
2024/01/22 04:44:43;;;;;;;11.98;7.03;;;20.90;99.90;;;;;;4956417;29;20031;-51
2024/01/22 04:47:09;;;;;;;13.73;8.02;;;20.90;99.90;;;;;;4956222;29;20027;-51
2024/01/22 04:49:35;;;;;;;12.90;7.57;;;20.90;99.90;;;;;;4956429;29;20093;-51
2024/01/22 04:52:01;;;;;;;13.23;7.90;;;20.90;99.90;;;;;;4954840;29;20023;-51
2024/01/22 04:54:26;;;;;;;14.85;7.28;;;20.90;99.90;;;;;;4950371;29;20024;-50
2024/01/22 04:56:54;;;;;;;13.07;8.00;;;20.80;99.90;;;;;;4946975;29;20372;-51
2024/01/22 04:59:20;;;;;;;13.38;7.78;;;20.80;99.90;;;;;;4954412;29;20062;-51
2024/01/22 05:01:46;;;;;;;15.50;7.88;;;20.80;99.90;;;;;;4956049;29;20047;-51
2024/01/22 05:04:12;;;;;;;17.60;7.97;;;20.80;99.90;;;;;;4955524;29;20038;-51
2024/01/22 05:06:38;;;;;;;13.93;7.78;;;20.80;99.90;;;;;;4955832;29;20098;-51
2024/01/22 05:09:04;;;;;;;11.60;7.30;;;20.80;99.90;;;;;;4955885;29;20039;-51
2024/01/22 05:11:30;;;;;;;17.08;8.43;;;20.80;99.90;;;;;;4955619;28;20026;-51
2024/01/22 05:13:57;;;;;;;14.82;7.72;;;20.70;99.90;;;;;;4955818;29;20019;-51
2024/01/22 05:16:23;;;;;;;11.77;7.07;;;20.80;99.90;;;;;;4955737;29;20110;-51
2024/01/22 05:18:50;;;;;;;15.57;7.50;;;20.70;99.90;;;;;;4955918;29;20106;-51
2024/01/22 05:21:16;;;;;;;12.10;7.30;;;20.70;99.90;;;;;;4955669;29;20506;-51
2024/01/22 05:23:42;;;;;;;15.98;7.53;;;20.70;99.90;;;;;;4955498;29;20019;-51
2024/01/22 05:26:08;;;;;;;15.25;8.23;;;20.70;99.90;;;;;;4955738;29;20103;-51
2024/01/22 05:28:35;;;;;;;14.07;7.75;;;20.70;99.90;;;;;;4955480;29;20111;-51
2024/01/22 05:31:01;;;;;;;16.48;7.68;;;20.70;99.90;;;;;;4955644;29;20558;-51
2024/01/22 05:33:28;;;;;;;14.00;7.75;;;20.70;99.90;;;;;;4955489;29;20058;-51
2024/01/22 05:35:55;;;;;;;14.35;7.38;;;20.70;99.90;;;;;;4955605;29;20363;-51
2024/01/22 05:38:21;;;;;;;15.02;7.85;;;20.70;99.90;;;;;;4955442;29;20027;-51
2024/01/22 05:40:47;;;;;;;12.38;7.88;;;20.70;99.90;;;;;;4955176;29;20028;-51
2024/01/22 05:43:13;;;;;;;12.57;7.07;;;20.60;99.90;;;;;;4955394;29;20075;-51
2024/01/22 05:45:39;;;;;;;12.90;7.35;;;20.60;99.90;;;;;;4955202;29;20022;-51
2024/01/22 05:48:06;;;;;;;11.85;7.03;;;20.60;99.90;;;;;;4955218;29;20035;-51
2024/01/22 05:50:32;;;;;;;14.23;8.00;;;20.60;99.90;;;;;;4955321;29;20019;-51
2024/01/22 05:52:58;;;;;;;13.77;7.93;;;20.60;99.90;;;;;;4955481;29;20089;-51
2024/01/22 05:55:27;;;;;;;14.82;8.15;;;20.60;99.90;;;;;;4955082;29;20387;-52
2024/01/22 05:57:52;;;;;;;13.88;7.80;;;20.60;99.90;;;;;;4955023;29;20054;-51
2024/01/22 06:00:18;;;;;;;15.45;7.75;;;20.60;99.90;;;;;;4955090;29;20066;-51
2024/01/22 06:02:44;;;;;;;11.13;6.68;;;20.60;99.90;;;;;;4954709;29;20047;-51
2024/01/22 06:05:10;;;;;;;12.85;7.20;;;20.60;99.90;;;;;;4954951;29;20383;-51
2024/01/22 06:07:39;;;;;;;12.40;7.35;;;20.50;99.90;;;;;;4954893;29;20047;-51
2024/01/22 06:10:06;;;;;;;12.07;7.05;;;20.50;99.90;;;;;;4954695;29;20480;-53
2024/01/22 06:12:34;;;;;;;14.23;6.10;;;20.50;99.90;;;;;;4954958;29;20074;-52
2024/01/22 06:15:01;;;;;;;16.00;7.55;;;20.50;99.90;;;;;;4954840;29;20253;-52
2024/01/22 06:17:31;;;;;;;13.25;7.13;;;20.50;99.90;;;;;;4954747;29;20528;-51
2024/01/22 06:20:00;;;;;;;14.25;7.40;;;20.50;99.90;;;;;;4954867;29;20050;-51
2024/01/22 06:22:26;;;;;;;12.70;7.07;;;20.50;99.90;;;;;;4953438;29;20031;-51
2024/01/22 06:24:52;;;;;;;13.50;6.53;;;20.50;99.90;;;;;;4953566;28;20055;-51
2024/01/22 06:27:17;;;;;;;12.43;6.65;;;20.40;99.90;;;;;;4954481;29;20114;-51
2024/01/22 06:29:43;;;;;;;11.52;6.20;;;20.50;99.90;;;;;;4954420;29;20042;-51
2024/01/22 06:32:09;;;;;;;14.07;7.38;;;20.40;99.90;;;;;;4954441;29;20098;-51
2024/01/22 06:34:38;;;;;;;13.73;7.28;;;20.40;99.90;;;;;;4954468;29;20037;-51
2024/01/22 06:37:04;;;;;;;13.25;7.13;;;20.40;99.90;;;;;;4937176;29;20424;-52
2024/01/22 06:39:30;;;;;;;13.90;6.90;;;20.40;99.90;;;;;;4954430;29;20027;-51
2024/01/22 06:41:56;;;;;;;12.85;7.32;;;20.40;99.90;;;;;;4954133;29;20020;-52
2024/01/22 06:44:22;;;;;;;13.27;6.70;;;20.40;99.90;;;;;;4954213;29;20106;-52
2024/01/22 06:46:47;;;;;;;13.60;6.63;;;20.40;99.90;;;;;;4954383;29;20031;-52
2024/01/22 06:49:13;;;;;;;11.52;7.28;;;20.40;99.90;;;;;;4953937;29;20090;-52
2024/01/22 06:51:39;;;;;;;13.75;7.82;;;20.40;99.90;;;;;;4954167;29;20491;-52
2024/01/22 06:54:05;;;;;;;12.63;7.72;;;20.30;99.90;;;;;;4953984;29;20026;-52
2024/01/22 06:56:31;;;;;;;13.93;7.07;;;20.30;99.90;;;;;;4954346;29;20035;-51
2024/01/22 06:58:57;;;;;;;13.30;7.93;;;20.30;99.90;;;;;;4936822;29;20062;-51
2024/01/22 07:01:23;;;;;;;13.40;7.28;;;20.30;99.90;;;;;;4953747;29;20072;-52
2024/01/22 07:03:49;;;;;;;13.82;7.05;;;20.30;99.90;;;;;;4953941;29;20019;-52
2024/01/22 07:06:14;;;;;;;15.00;7.15;;;20.30;99.90;;;;;;4953859;29;20102;-51
2024/01/22 07:08:40;;;;;;;13.32;7.70;;;20.30;99.90;;;;;;4953897;29;20027;-51
2024/01/22 07:11:06;;;;;;;14.63;7.78;;;20.30;99.90;;;;;;4953934;29;20545;-51
2024/01/22 07:13:32;;;;;;;15.63;7.45;;;20.20;99.90;;;;;;4953904;29;20329;-52
2024/01/22 07:16:01;;;;;;;15.60;7.90;;;20.30;99.90;;;;;;4953832;29;20030;-52
2024/01/22 07:18:27;;;;;;;15.35;7.18;;;20.20;99.90;;;;;;4953700;29;20383;-52
2024/01/22 07:20:53;;;;;;;15.25;7.90;;;20.20;99.90;;;;;;4953808;29;20027;-52
2024/01/22 07:23:19;;;;;;;13.55;7.30;;;20.20;99.90;;;;;;4953665;29;20034;-52
2024/01/22 07:25:46;;;;;;;13.23;6.97;;;20.20;99.90;;;;;;4953701;29;20420;-52
2024/01/22 07:28:11;;;;;;;14.18;7.68;;;20.20;99.90;;;;;;4953667;29;20031;-52
2024/01/22 07:30:37;;;;;;;12.38;7.40;;;20.20;99.90;;;;;;4953875;29;20020;-52
2024/01/22 07:33:03;;;;;;;12.95;7.07;;;20.20;99.90;;;;;;4953884;29;20110;-52
2024/01/22 07:35:29;;;;;;;15.85;7.40;;;20.20;99.90;;;;;;4954776;28;20103;-52
2024/01/22 07:37:55;;;;;;;11.50;6.45;;;20.20;99.90;;;;;;4957705;29;20031;-53
2024/01/22 07:40:21;;;;;;;12.32;7.22;;;20.20;99.90;;;;;;4957585;29;20058;-53
2024/01/22 07:42:48;;;;;;;12.95;6.97;;;20.20;99.90;;;;;;4940466;29;20027;-52
2024/01/22 07:45:14;;;;;;;12.43;6.85;;;20.20;99.90;;;;;;4957342;29;20114;-52
2024/01/22 07:47:40;;;;;;;15.18;6.90;;;20.20;99.90;;;;;;4957487;29;20098;-53
2024/01/22 07:50:10;;;;;;;10.23;6.32;;;20.20;99.90;;;;;;4957787;29;20027;-53
2024/01/22 07:52:36;;;;;;;12.85;6.55;;;20.20;99.90;;;;;;4957504;29;20081;-53
2024/01/22 07:55:03;;;;;;;12.45;5.88;;;20.20;99.90;;;;;;4957451;29;20028;-53
2024/01/22 07:57:29;;;;;;;12.88;6.97;;;20.20;99.90;;;;;;4957206;29;20555;-52
2024/01/22 07:59:55;;;;;;;12.70;6.90;;;20.20;99.90;;;;;;4957207;29;20055;-52
2024/01/22 08:02:21;;;;;;;11.35;6.50;;;20.20;99.90;;;;;;4957163;29;20373;-52
2024/01/22 08:04:47;;;;;;;16.45;8.10;;;20.20;99.90;;;;;;4956948;29;20077;-53
2024/01/22 08:07:12;;;;;;;14.02;5.90;;;20.30;99.90;;;;;;4957063;29;20019;-53
2024/01/22 08:09:39;;;;;;;10.73;6.68;;;20.30;99.90;;;;;;4956857;29;20107;-52
2024/01/22 08:12:05;;;;;;;11.23;6.55;;;20.30;99.90;;;;;;4940124;29;20491;-52
2024/01/22 08:14:33;;;;;;;11.70;6.45;;;20.30;99.90;;;;;;4957035;29;20027;-51
2024/01/22 08:16:58;;;;;;;9.75;5.75;;;20.30;99.90;;;;;;4956873;29;20015;-52
2024/01/22 08:19:24;;;;;;;13.13;6.13;;;20.40;99.90;;;;;;4955593;29;20078;-52
2024/01/22 08:21:50;;;;;;;11.52;6.82;;;20.40;99.90;;;;;;4952944;29;20019;-52
2024/01/22 08:24:16;;;;;;;13.50;7.10;;;20.40;99.90;;;;;;4945113;29;20023;-52
2024/01/22 08:26:42;;;;;;;11.88;6.82;;;20.40;99.90;;;;;;4954999;29;20098;-52
2024/01/22 08:29:08;;;;;;;12.52;6.38;;;20.50;99.90;;;;;;4955863;29;20043;-52
2024/01/22 08:31:34;;;;;;;11.50;6.25;;;20.50;99.90;;;;;;4956889;29;20019;-52
2024/01/22 08:34:01;;;;;;;11.55;6.13;;;20.50;99.90;;;;;;4956517;29;20029;-52
2024/01/22 08:36:26;;;;;;;15.27;6.47;;;20.50;99.90;;;;;;4956739;29;20026;-51
2024/01/22 08:38:52;;;;;;;12.05;6.28;;;20.60;99.90;;;;;;4956386;29;20023;-52
2024/01/22 08:41:18;;;;;;;9.75;6.28;;;20.60;99.90;;;;;;4939327;29;20396;-51
2024/01/22 08:43:44;;;;;;;16.42;6.72;;;20.60;99.90;;;;;;4956194;29;20023;-51
2024/01/22 08:46:10;;;;;;;12.35;6.15;;;20.60;99.90;;;;;;4956076;28;20027;-52
2024/01/22 08:48:35;;;;;;;10.88;6.20;;;20.70;99.90;;;;;;4955343;29;20035;-52
2024/01/22 08:51:01;;;;;;;13.40;6.13;;;20.70;99.90;;;;;;4955969;29;20019;-52
2024/01/22 08:53:27;;;;;;;11.32;6.15;;;20.70;99.90;;;;;;4956079;29;20405;-51
2024/01/22 08:55:52;;;;;;;14.95;6.50;;;20.70;99.90;;;;;;4955840;29;20027;-51
2024/01/22 08:58:18;;;;;;;12.38;6.40;;;20.80;99.90;;;;;;4956106;29;20034;-51
2024/01/22 09:00:44;;;;;;;11.23;6.03;;;20.80;99.90;;;;;;4956307;29;20078;-51
2024/01/22 09:03:10;;;;;;;9.63;6.10;;;20.80;99.90;;;;;;4938803;29;20035;-51
2024/01/22 09:05:35;;;;;;;13.20;6.80;;;20.90;99.90;;;;;;4956338;29;20023;-52
2024/01/22 09:08:01;;;;;;;12.00;6.40;;;20.90;99.90;;;;;;4955880;29;20046;-51
2024/01/22 09:10:27;;;;;;;15.10;6.78;;;20.90;99.90;;;;;;4956132;29;20023;-51
2024/01/22 09:12:53;;;;;;;10.82;5.68;;;20.90;99.90;;;;;;4955824;29;20471;-52
2024/01/22 09:15:19;;;;;;;13.73;6.20;;;20.90;99.90;;;;;;4956036;29;20086;-52
2024/01/22 09:17:45;;;;;;;10.70;5.90;;;21.00;99.90;;;;;;4955903;29;20542;-51
2024/01/22 09:20:11;;;;;;;14.45;6.15;;;21.00;99.90;;;;;;4955511;29;20034;-51
2024/01/22 09:22:37;;;;;;;11.77;6.00;;;21.00;99.90;;;;;;4956030;29;20023;-51
2024/01/22 09:25:03;;;;;;;10.90;5.93;;;21.00;99.90;;;;;;4955797;29;20027;-52
2024/01/22 09:27:29;;;;;;;12.18;6.15;;;21.10;99.90;;;;;;4938711;29;20031;-52
2024/01/22 09:29:55;;;;;;;12.90;5.72;;;21.10;99.90;;;;;;4954256;29;20383;-51
2024/01/22 09:32:21;;;;;;;12.50;6.53;;;21.10;99.90;;;;;;4955695;29;20400;-52
2024/01/22 09:34:47;;;;;;;13.15;6.35;;;21.10;99.90;;;;;;4955661;29;20106;-52
2024/01/22 09:37:13;;;;;;;12.55;6.20;;;21.20;99.90;;;;;;4938293;29;20114;-52
2024/01/22 09:39:39;;;;;;;11.65;6.25;;;21.20;99.90;;;;;;4955589;29;20024;-51
2024/01/22 09:42:05;;;;;;;13.10;6.22;;;21.20;99.90;;;;;;4955570;29;20031;-51
2024/01/22 09:44:33;;;;;;;11.45;6.25;;;21.20;99.90;;;;;;4955388;29;20027;-51
2024/01/22 09:47:00;;;;;;;11.68;5.63;;;21.30;99.90;;;;;;4955058;29;20111;-51
2024/01/22 09:49:26;;;;;;;12.25;5.88;;;21.30;99.90;;;;;;4955345;29;20028;-51
2024/01/22 09:51:52;;;;;;;11.48;5.97;;;21.30;99.90;;;;;;4954994;29;20535;-51
2024/01/22 09:54:20;;;;;;;12.10;5.53;;;21.30;99.90;;;;;;4954929;29;20032;-51
2024/01/22 09:56:54;;;;;;;10.40;5.22;;;21.40;99.90;;;;;;4955051;29;20427;-51
2024/01/22 09:59:21;;;;;;;11.07;6.90;;;21.40;99.90;;;;;;4954582;28;20022;-51
2024/01/22 10:01:51;;;;;;;9.40;5.53;;;21.40;99.90;;;;;;4954827;29;20039;-51
2024/01/22 10:04:18;;;;;;;10.65;5.28;;;21.40;99.90;;;;;;4954953;29;20027;-52
2024/01/22 10:06:45;;;;;;;14.48;6.15;;;21.50;99.90;;;;;;4937707;29;20028;-51
2024/01/22 10:09:15;;;;;;;11.35;6.03;;;21.50;99.90;;;;;;4937658;29;20051;-51
2024/01/22 10:11:45;;;;;;;10.13;5.13;;;21.50;99.90;;;;;;4954546;29;20023;-52
2024/01/22 10:14:11;;;;;;;12.82;6.00;;;21.60;99.90;;;;;;4954885;29;20472;-51
2024/01/22 10:16:37;;;;;;;11.75;5.70;;;21.60;99.90;;;;;;4954834;29;20491;-51
2024/01/22 10:19:07;;;;;;;10.55;6.30;;;21.70;99.90;;;;;;4954882;29;20023;-51
2024/01/22 10:21:33;;;;;;;15.35;5.97;;;21.70;99.90;;;;;;4954490;29;20599;-51
2024/01/22 10:24:07;;;;;;;10.20;5.53;;;21.70;99.90;;;;;;4953565;29;20063;-51
2024/01/22 10:26:34;;;;;;;11.27;5.30;;;21.80;99.90;;;;;;4953168;29;20281;-51
2024/01/22 10:29:17;;;;;;;13.07;6.55;;;21.80;99.90;;;;;;4954143;29;20082;-51
2024/01/22 10:31:59;;;;;;;13.57;5.88;;;21.80;99.90;;;;;;4953754;29;20114;-52
2024/01/22 10:34:30;;;;;;;12.05;5.88;;;21.90;99.90;;;;;;4954163;29;20041;-52
2024/01/22 10:37:10;;;;;;;11.98;5.95;;;21.90;99.90;;;;;;4941837;29;20051;-51
2024/01/22 10:39:38;;;;;;;15.27;6.20;;;22.00;99.90;;;;;;4947238;29;20027;-51
2024/01/22 10:42:15;;;;;;;16.27;5.95;;;22.00;99.90;;;;;;4954360;29;20053;-53
2024/01/22 10:44:43;;;;;;;12.83;6.10;;;22.10;99.90;;;;;;4943872;29;20030;-52
2024/01/22 10:47:11;;;;;;;12.38;5.18;;;22.10;99.90;;;;;;4952715;29;20023;-52
2024/01/22 10:49:37;;;;;;;12.25;5.30;;;22.20;99.90;;;;;;4953623;29;20082;-52
2024/01/22 10:52:04;;;;;;;9.75;5.22;;;22.20;99.90;;;;;;4941842;29;20496;-52
2024/01/22 10:54:31;;;;;;;12.73;5.43;;;22.20;99.90;;;;;;4930357;29;20058;-52
2024/01/22 10:57:06;;;;;;;12.15;5.07;;;22.30;99.90;;;;;;4953641;29;20029;-52
2024/01/22 10:59:37;;;;;;;15.05;5.78;;;22.30;99.90;;;;;;4949991;29;20475;-52
2024/01/22 11:02:22;;;;;;;20.88;5.97;;;22.30;99.90;;;;;;4954210;29;20125;-52
2024/01/22 11:04:52;;;;;;;18.65;5.13;;;22.40;99.90;;;;;;4953238;29;20033;-53
2024/01/22 11:07:27;;;;;;;11.30;4.78;;;22.40;99.90;;;;;;4953184;29;20031;-53
2024/01/22 11:09:55;;;;;;;13.85;4.32;;;22.40;99.90;;;;;;4952036;28;20031;-53
2024/01/22 11:12:22;;;;;;;10.35;2.20;;;22.50;99.90;;;;;;4953661;29;20020;-52
2024/01/22 11:14:48;;;;;;;8.93;2.50;;;22.50;99.90;;;;;;4953788;29;20038;-52
2024/01/22 11:17:15;;;;;;;13.50;2.40;;;22.50;99.90;;;;;;4953749;29;20078;-52
2024/01/22 11:19:41;;;;;;;19.77;2.58;;;22.50;99.90;;;;;;4934028;29;20455;-53
2024/01/22 11:22:22;;;;;;;10.70;2.03;;;22.50;99.90;;;;;;4935616;29;20091;-52
2024/01/22 11:25:01;;;;;;;11.40;1.95;;;22.50;99.90;;;;;;4951531;29;20035;-53
2024/01/22 11:27:40;;;;;;;14.57;3.15;;;22.50;99.90;;;;;;4950422;29;20059;-54
2024/01/22 11:30:24;;;;;;;10.35;2.65;;;22.60;99.90;;;;;;4943036;29;20027;-55
2024/01/22 11:32:50;;;;;;;13.45;2.55;;;22.50;99.90;;;;;;4950523;29;20069;-53
2024/01/22 11:35:36;;;;;;;13.38;3.13;;;22.60;99.90;;;;;;4951180;29;20110;-54
2024/01/22 11:38:03;;;;;;;13.98;3.10;;;22.70;99.90;;;;;;4951991;29;20110;-53
2024/01/22 11:40:52;;;;;;;12.45;3.53;;;22.70;99.90;;;;;;4953752;29;20410;-53
2024/01/22 11:43:20;;;;;;;16.30;4.22;;;22.70;99.90;;;;;;4953462;29;20031;-53
2024/01/22 11:45:51;;;;;;;15.57;3.75;;;22.80;99.90;;;;;;4953351;29;20054;-53
2024/01/22 11:48:19;;;;;;;15.93;4.50;;;22.80;99.90;;;;;;4953289;29;20031;-53
2024/01/22 11:51:06;;;;;;;16.92;3.78;;;22.80;99.90;;;;;;4949792;29;20102;-52
2024/01/22 11:53:32;;;;;;;13.60;4.65;;;22.90;99.90;;;;;;4952592;29;20494;-52
2024/01/22 11:56:05;;;;;;;14.52;4.20;;;22.90;99.90;;;;;;4953293;29;20035;-50
2024/01/22 11:58:34;;;;;;;13.52;4.50;;;23.00;99.90;;;;;;4920765;29;20031;-51
2024/01/22 12:01:01;;;;;;;13.65;3.75;;;23.00;99.90;;;;;;4953047;29;20090;-52
2024/01/22 12:03:31;;;;;;;12.45;4.30;;;23.00;99.90;;;;;;4952574;29;20031;-51
2024/01/22 12:06:07;;;;;;;11.73;3.45;;;23.10;99.90;;;;;;4952053;29;20055;-52
2024/01/22 12:08:34;;;;;;;14.35;4.50;;;23.10;99.90;;;;;;4952115;29;20031;-51
2024/01/22 12:11:18;;;;;;;14.68;4.22;;;23.20;99.90;;;;;;4951969;29;20024;-51
2024/01/22 12:13:44;;;;;;;14.25;3.97;;;23.20;99.90;;;;;;4953066;29;20065;-51
2024/01/22 12:16:13;;;;;;;10.45;3.88;;;23.20;99.90;;;;;;4953189;29;20442;-51
2024/01/22 12:18:39;;;;;;;14.80;4.50;;;23.30;99.90;;;;;;4952363;29;20023;-51
2024/01/22 12:21:05;;;;;;;16.05;4.85;;;23.30;99.90;;;;;;4953851;28;20027;-52
2024/01/22 12:23:32;;;;;;;12.23;4.90;;;23.30;99.90;;;;;;4956208;29;20058;-51
2024/01/22 12:25:59;;;;;;;11.82;4.50;;;23.40;99.90;;;;;;4956619;29;20451;-51
2024/01/22 12:28:26;;;;;;;7.57;3.88;;;23.40;99.90;;;;;;4956339;29;20130;-52
2024/01/22 12:31:02;;;;;;;10.20;3.58;;;23.40;99.90;;;;;;4956623;29;20071;-52
2024/01/22 12:33:30;;;;;;;9.93;3.97;;;23.50;99.90;;;;;;4956185;29;20058;-51
2024/01/22 12:36:08;;;;;;;;;;;23.50;99.90;;;;;;4956595;29;20024;-53